METAR / TAF
Helsinki-Vantaa
HELSINKI/VANTAA
Metar
EFHK 110020Z 03009KT 7000 -SN BKN005 00/M00 Q1006 TEMPO 8000

00:20 UTC

Wind: 30° 9kt

Visibility: 7000 m

Sky: BKN 500 ft

Temp: 0 deg C / 32 deg F

Dewpoint: 0 deg C / 32 deg F

Pressure: 1006 hPa

TAF
TAF COR EFHK 110004Z 1100/1200 04009KT 6000 -SN BKN004 TEMPO 1100/1106 9999 BKN005 BECMG 1106/1108 9999 BKN007 BECMG 1112/1114 BKN013 BECMG 1116/1118 BKN015 PROB40 TEMPO 1116/1122 BKN008
Helsinki, Malmi
HELSINKI/MALMI
Turku
TURKU/ABO
Metar
EFTU 110020Z AUTO 05008KT 6000 -SN BKN005/// OVC034/// 01/00 Q1006

00:20 UTC

Wind: 50° 8kt

Visibility: 6000 m

Sky: BKN 500 ft

Temp: 1 deg C / 33.8 deg F

Dewpoint: 0 deg C / 32 deg F

Pressure: 1006 hPa

TAF
TAF EFTU 102333Z 1100/1200 06008KT 9999 -RASN BKN007 PROB30 TEMPO 1100/1105 6000 -SN BECMG 1105/1107 BKN015 PROB30 TEMPO 1107/1110 BKN014
Tampere, Pirkkala
TAMPERE/PIRKKALA
Metar
EFTP 110020Z AUTO 04007KT 9999 BKN006 OVC008 01/00 Q1008

00:20 UTC

Wind: 40° 7kt

Visibility: 9999 m

Sky: BKN 600 ft

Temp: 1 deg C / 33.8 deg F

Dewpoint: 0 deg C / 32 deg F

Pressure: 1008 hPa

TAF
TAF EFTP 102334Z 1100/1124 04009KT 9999 -SN SCT006 OVC010 PROB40 TEMPO 1100/1112 2500 BR BKN004
Maarianhamina
MARIEHAMN/ALAND
Metar
EFMA 110020Z AUTO 03008KT 9999 OVC009 03/01 Q1006

00:20 UTC

Wind: 30° 8kt

Visibility: 9999 m

Sky: OVC 900 ft

Temp: 3 deg C / 37.4 deg F

Dewpoint: 1 deg C / 33.8 deg F

Pressure: 1006 hPa

TAF
TAF EFMA 102333Z 1100/1109 04010KT 9999 -SHRA BKN008 TEMPO 1100/1107 7000 -RADZ BKN010 PROB30 TEMPO 1100/1103 3500 RADZ
Pori
PORI (MIL/CIV)
Metar
EFPO 110020Z AUTO 06005KT 9999 OVC007/// 01/00 Q1008

00:20 UTC

Wind: 60° 5kt

Visibility: 9999 m

Sky: OVC 700 ft

Temp: 1 deg C / 33.8 deg F

Dewpoint: 0 deg C / 32 deg F

Pressure: 1008 hPa

Vaasa
VAASA
Metar
EFVA 110020Z AUTO 02005KT 7000 FEW005/// OVC011/// 01/00 Q1010

00:20 UTC

Wind: 20° 5kt

Visibility: 7000 m

Sky: FEW 500 ft

Temp: 1 deg C / 33.8 deg F

Dewpoint: 0 deg C / 32 deg F

Pressure: 1010 hPa

TAF
TAF EFVA 102333Z 1100/1200 03004KT 8000 FEW005 OVC010 TEMPO 1100/1200 7000 -SN BKN006 PROB30 1100/1200 4000 -SN
Kruunupyy
KRUUNUPYY
Metar
EFKK 110020Z AUTO 01007KT 9999 OVC003 00/00 Q1011

00:20 UTC

Wind: 10° 7kt

Visibility: 9999 m

Sky: OVC 300 ft

Temp: 0 deg C / 32 deg F

Dewpoint: 0 deg C / 32 deg F

Pressure: 1011 hPa

TAF
TAF AMD EFKK 102248Z 1022/1024 03005KT 9999 OVC009 PROB30 TEMPO 1022/1024 6000 -SN BKN003
Jyväskylä, Tikkakoski
JYVASKYLA (MIL/C
Metar
EFJY 110020Z AUTO 04005KT 5000 OVC003 00/M01 Q1009

00:20 UTC

Wind: 40° 5kt

Visibility: 5000 m

Sky: OVC 300 ft

Temp: 0 deg C / 32 deg F

Dewpoint: -1 deg C / 30.2 deg F

Pressure: 1009 hPa

TAF
TAF EFJY 102334Z 1100/1124 05006KT 9000 -SN BKN005 TEMPO 1100/1108 3000 BR BKN003 TEMPO 1108/1115 SCT005 BKN012 PROB30 TEMPO 1115/1121 4000 BR BKN004
Kuopio
KUOPIO (MIL/CIV)
Metar
EFKU 110020Z AUTO 04002KT 9999 -SHUP FEW006 BKN072 M02/M03 Q1010

00:20 UTC

Wind: 40° 2kt

Visibility: 9999 m

Sky: FEW 600 ft

Temp: -2 deg C / 28.4 deg F

Dewpoint: -3 deg C / 26.6 deg F

Pressure: 1010 hPa

TAF
TAF EFKU 102333Z 1100/1124 04004KT 9999 BKN003 TEMPO 1100/1103 6000 -SN SCT005 BKN030 PROB30 1100/1103 -FZDZ BECMG 1103/1105 SCT005 BKN030 TEMPO 1103/1112 3000 -SN BKN004 TEMPO 1112/1124 7000 -SN BKN007
Joensuu
JOENSUU
Metar
EFJO 110020Z AUTO 05003KT 8000 -FZRA BKN142 M03/M04 Q1009

00:20 UTC

Wind: 50° 3kt

Visibility: 8000 m

Sky: BKN 14200 ft

Temp: -3 deg C / 26.6 deg F

Dewpoint: -4 deg C / 24.8 deg F

Pressure: 1009 hPa

TAF
TAF EFJO 102036Z 1021/1024 05003KT 8000 -SN BKN009 TEMPO 1021/1024 4000 -SN SCT008 BKN015
Halli
HALLI (FIN-AFB)
Metar
EFHA 110020Z AUTO 04005KT 7000 OVC004 01/00 Q1008

00:20 UTC

Wind: 40° 5kt

Visibility: 7000 m

Sky: OVC 400 ft

Temp: 1 deg C / 33.8 deg F

Dewpoint: 0 deg C / 32 deg F

Pressure: 1008 hPa

Utti
UTTI (FIN-AFB)
Metar
EFUT 110020Z AUTO 05008KT 9999 OVC005 01/00 Q1006

00:20 UTC

Wind: 50° 8kt

Visibility: 9999 m

Sky: OVC 500 ft

Temp: 1 deg C / 33.8 deg F

Dewpoint: 0 deg C / 32 deg F

Pressure: 1006 hPa

Mikkeli
MIKKELI
Metar
EFMI 110020Z AUTO VRB04KT 9000 OVC004 M01/M01 Q1008

00:20 UTC

Wind: ° 4kt

Visibility: 9000 m

Sky: OVC 400 ft

Temp: -1 deg C / 30.2 deg F

Dewpoint: -1 deg C / 30.2 deg F

Pressure: 1008 hPa

Savonlinna
SAVONLINNA (AUT)
Metar
EFSA 110020Z AUTO 02003KT 9000 -SHSN OVC005 M02/M03 Q1008

00:20 UTC

Wind: 20° 3kt

Visibility: 9000 m

Sky: OVC 500 ft

Temp: -2 deg C / 28.4 deg F

Dewpoint: -3 deg C / 26.6 deg F

Pressure: 1008 hPa

Lappeenranta
LAPPEENRANTA
Metar
EFLP 110020Z AUTO 03007KT 3800 -RASN OVC004 ///// Q////
Oulu
OULU/ULEABORG
Metar
EFOU 110020Z AUTO 01003KT 9999 SCT005/// BKN008/// OVC019/// M01/M01 Q1011

00:20 UTC

Wind: 10° 3kt

Visibility: 9999 m

Sky: SCT 500 ft

Temp: -1 deg C / 30.2 deg F

Dewpoint: -1 deg C / 30.2 deg F

Pressure: 1011 hPa

TAF
TAF EFOU 102333Z 1100/1124 02003KT 9999 FEW002 SCT005 BKN020 TEMPO 1100/1124 7000 -SN BKN005
Kemi
KEMI
Metar
EFKE 110020Z AUTO 01009KT 9999 OVC007 M01/M02 Q1013

00:20 UTC

Wind: 10° 9kt

Visibility: 9999 m

Sky: OVC 700 ft

Temp: -1 deg C / 30.2 deg F

Dewpoint: -2 deg C / 28.4 deg F

Pressure: 1013 hPa

TAF
TAF EFKE 102036Z 1021/1024 01004KT 9999 BKN009 TEMPO 1021/1024 7000 -SN BKN004
Rovaniemi
ROVANIEMI (CIV/M
Metar
EFRO 110020Z AUTO 36006KT 9999 SCT002 BKN005 OVC008 M03/M03 Q1012

00:20 UTC

Wind: 360° 6kt

Visibility: 9999 m

Sky: SCT 200 ft

Temp: -3 deg C / 26.6 deg F

Dewpoint: -3 deg C / 26.6 deg F

Pressure: 1012 hPa

TAF
TAF EFRO 102333Z 1100/1124 01006KT 9999 BKN002 TEMPO 1100/1105 4000 -SN SCT004 BKN015 BECMG 1105/1107 5000 -SN SCT005 BKN015 TEMPO 1105/1112 2000 -SN BKN005 BECMG 1112/1114 9999 TEMPO 1112/1124 5000 -SN BKN003 PROB40 1121/1124 2000 BR BKN001
Enontekiö
ENONTEKIO
Metar
EFET 110020Z AUTO 36006KT CAVOK M06/M08 Q1015

00:20 UTC

Wind: 360° 6kt

Visibility:

Sky:

Temp: -6 deg C / 21.2 deg F

Dewpoint: -8 deg C / 17.6 deg F

Pressure: 1015 hPa

Ivalo
IVALO
Metar
EFIV 110020Z AUTO 02006KT 340V050 6000 -SN FEW008 OVC020 M02/M02 Q1014

00:20 UTC

Wind: 20° 6kt

Visibility: 6000 m

Sky: FEW 800 ft

Temp: -2 deg C / 28.4 deg F

Dewpoint: -2 deg C / 28.4 deg F

Pressure: 1014 hPa

Kittilä
KITTILA
Metar
EFKT 110020Z AUTO 35006KT 330V030 9999 -SHSN OVC016 M02/M03 Q1013

00:20 UTC

Wind: 350° 6kt

Visibility: 9999 m

Sky: OVC 1600 ft

Temp: -2 deg C / 28.4 deg F

Dewpoint: -3 deg C / 26.6 deg F

Pressure: 1013 hPa

Kuusamo
KUUSAMO
Metar
EFKS 110020Z AUTO 04003KT 360V090 9999 OVC003 M04/M04 Q1011

00:20 UTC

Wind: 40° 3kt

Visibility: 9999 m

Sky: OVC 300 ft

Temp: -4 deg C / 24.8 deg F

Dewpoint: -4 deg C / 24.8 deg F

Pressure: 1011 hPa

Kajaani
KAJAANI
Metar
EFKI 110020Z AUTO 02002KT CAVOK M03/M04 Q1010

00:20 UTC

Wind: 20° 2kt

Visibility:

Sky:

Temp: -3 deg C / 26.6 deg F

Dewpoint: -4 deg C / 24.8 deg F

Pressure: 1010 hPa

TAF
TAF AMD EFKI 101824Z 1018/1022 07004KT 9999 BKN006 TEMPO 1018/1022 FEW005 BKN050
Varkaus
VARKAUS
Seinäjoki
SEINAJOKI-ILMAJO
Metar
EFSI 110020Z AUTO 02003KT 7000 -SHRA SCT009 BKN011 OVC085 00/00 Q1009

00:20 UTC

Wind: 20° 3kt

Visibility: 7000 m

Sky: SCT 900 ft

Temp: 0 deg C / 32 deg F

Dewpoint: 0 deg C / 32 deg F

Pressure: 1009 hPa

Print Friendly, PDF & Email